Waterford, Michigan
Current Conditions -  °F | °C
As of 12:53 AM on Monday 29 Dec 2014 (Local Time) from KPTK Reporting Station
Overcast Overcast  
Wind Chill: 19°   Ceiling: 2400
Heat Index: 27°   Visibility: 10mi
Dew Point: 19°   Wind: 8mph
Humidity: 72%   Direction: 300°WNW
Pressure: 30.18"   Gusts: NA
Location:  42.67°N, 83.39°W
Report Text: KPTK 290553Z AUTO 30007KT 10SM OVC024 M03/M07 A3018 RMK AO2 SLP232 T10281072 11017 21039 53011 $
Loading
Personal Weather Stations






























Interactive Weather Map New forecast layout! Learn more

10-Day Weather Forecast

Advertisements
Track Severe Weather on mobile